Huvudsida
METAR-TAF:

METAR-TAF

Flygplatser :

Linköping City Airport

Linköping, Sverige

latitud: 58-24N, longitud: 015-41E, höjd: 52 m

Aktuellt väderrapport

Denna rapport gjordes för 36 minuter sedan, klockan 12:20 UTC
Vind 10 kt från väst/nordväst
Temperatur 23°C
Fuktighet 57%
Tryck 1018 hPa
Sikt 10 km eller mer
Inga moln under 1 500 m eller inga cumulonimbus

METAR: ESSL 191220Z 30010KT CAVOK 23/14 Q1018

Tid: 14:56 (12:56 UTC)

Väderprognos

Denna rapport gjordes för 10 timmar och 26 minuter sedan, klockan 02:30 UTC
Prognos gäller från 19 kl. 03 UTC till 19 kl. 05 UTC
Vind 8 kt från väst
Sikt 10 km eller mer
Inga moln under 1 500 m eller inga cumulonimbus
Sannolikhet 40%
från 19 kl. 03 UTC till 19 kl. 05 UTC
Brutna moln på en höjd av 800 ft

TAF: ESSL 190230Z 1903/1905 27008KT CAVOK PROB40 1903/1905 BKN008

Aktuella väderrapporter och prognoser från 4000 flygplatser (METAR- och TAF-rapporter).

De tillgängliga stationerna syns som gula och röda prickar på kartan.

För musen över prickarna för att se namnen på stationerna.

Klicka sedan för att få väderrapporter och prognoser.

För att ändra kartan: Klicka på de gröna knapparna med ett svart kors på för att zooma in; den gröna knappen med ett streck på för att zooma ut; eller på de gröna pilarna för angränsande kartor.


METAR-TAF: